createdAt,value
2019-01-06T00:01:46.738Z,16.65
2019-01-06T00:04:43.278Z,12.18
2019-01-06T00:07:29.829Z,12.10
2019-01-06T00:10:29.927Z,14.30
2019-01-06T00:13:16.352Z,15.63
2019-01-06T00:16:07.306Z,11.28
2019-01-06T00:19:13.570Z,13.58
2019-01-06T00:22:00.090Z,13.20
2019-01-06T00:24:47.035Z,9.33
2019-01-06T00:27:40.951Z,8.25
2019-01-06T00:30:25.029Z,10.65
2019-01-06T00:33:16.635Z,10.98
2019-01-06T00:36:03.287Z,10.82
2019-01-06T00:38:50.550Z,9.15
2019-01-06T00:41:37.222Z,8.40
2019-01-06T00:44:30.836Z,10.25
2019-01-06T00:47:13.974Z,8.15
2019-01-06T00:50:01.738Z,9.25
2019-01-06T00:52:55.542Z,8.45
2019-01-06T00:55:49.322Z,8.20
2019-01-06T00:58:36.167Z,7.72
2019-01-06T01:01:16.486Z,7.72
2019-01-06T01:04:03.153Z,7.42
2019-01-06T01:07:00.658Z,7.55
2019-01-06T01:09:52.400Z,7.40
2019-01-06T01:12:46.230Z,6.78
2019-01-06T01:15:33.047Z,5.50
2019-01-06T01:18:33.129Z,7.37
2019-01-06T01:21:21.911Z,6.40
2019-01-06T01:24:25.115Z,3.87
2019-01-06T01:27:22.005Z,8.60
2019-01-06T01:30:08.669Z,6.17
2019-01-06T01:32:59.469Z,14.05
2019-01-06T01:35:56.526Z,8.20
2019-01-06T01:38:56.742Z,9.43
2019-01-06T01:41:53.485Z,4.67
2019-01-06T01:44:40.185Z,8.68
2019-01-06T01:47:27.938Z,8.68
2019-01-06T01:50:14.349Z,8.88
2019-01-06T01:53:00.170Z,8.75
2019-01-06T01:55:47.004Z,5.40
2019-01-06T01:58:33.842Z,8.20
2019-01-06T02:01:27.997Z,5.25
2019-01-06T02:04:34.411Z,8.58
2019-01-06T02:07:22.866Z,4.08
2019-01-06T02:10:20.518Z,5.10
2019-01-06T02:13:07.108Z,6.00
2019-01-06T02:15:50.449Z,8.78
2019-01-06T02:18:37.251Z,5.28
2019-01-06T02:21:28.140Z,8.70
2019-01-06T02:24:16.738Z,8.48
2019-01-06T02:27:03.006Z,9.80
2019-01-06T02:29:50.795Z,4.08
2019-01-06T02:32:49.957Z,8.65
2019-01-06T02:35:36.648Z,10.30
2019-01-06T02:38:23.391Z,5.75
2019-01-06T02:41:10.054Z,10.78
2019-01-06T02:44:04.203Z,6.78
2019-01-06T02:46:52.057Z,6.35
2019-01-06T02:49:42.635Z,5.78
2019-01-06T02:52:36.317Z,9.23
2019-01-06T02:55:32.495Z,16.62
2019-01-06T02:58:38.713Z,9.95
2019-01-06T03:01:32.320Z,7.00
2019-01-06T03:04:18.575Z,11.28
2019-01-06T03:07:01.550Z,8.18
2019-01-06T03:10:01.407Z,11.57
2019-01-06T03:12:47.953Z,11.03
2019-01-06T03:15:45.935Z,6.70
2019-01-06T03:18:23.868Z,10.98
2019-01-06T03:21:17.780Z,8.83
2019-01-06T03:24:18.978Z,7.22
2019-01-06T03:27:05.401Z,9.58
2019-01-06T03:29:49.827Z,4.62
2019-01-06T03:32:36.289Z,5.50
2019-01-06T03:35:26.018Z,7.17
2019-01-06T03:38:12.725Z,5.92
2019-01-06T03:41:09.659Z,7.10
2019-01-06T03:44:12.847Z,4.00
2019-01-06T03:46:59.454Z,11.53
2019-01-06T03:49:50.099Z,7.03
2019-01-06T03:52:40.749Z,8.60
2019-01-06T03:55:27.971Z,5.85
2019-01-06T03:58:15.760Z,6.47
2019-01-06T04:01:09.396Z,7.90
2019-01-06T04:03:57.234Z,4.35
2019-01-06T04:06:47.845Z,8.03
2019-01-06T04:09:34.558Z,4.47
2019-01-06T04:12:28.910Z,4.22
2019-01-06T04:15:17.183Z,3.75
2019-01-06T04:18:11.644Z,5.58
2019-01-06T04:21:02.574Z,4.35
2019-01-06T04:24:02.445Z,7.85
2019-01-06T04:26:53.187Z,8.23
2019-01-06T04:29:56.167Z,4.30
2019-01-06T04:32:44.019Z,4.87
2019-01-06T04:35:45.342Z,6.97
2019-01-06T04:38:31.970Z,8.85
2019-01-06T04:41:23.898Z,11.50
2019-01-06T04:44:20.646Z,13.50
2019-01-06T04:47:07.190Z,9.33
2019-01-06T04:49:57.300Z,8.28
2019-01-06T04:53:03.541Z,11.65
2019-01-06T04:55:51.310Z,7.05
2019-01-06T04:58:30.346Z,8.73
2019-01-06T05:01:18.393Z,9.50
2019-01-06T05:04:09.286Z,7.97
2019-01-06T05:06:55.784Z,8.25
2019-01-06T05:09:43.612Z,7.55
2019-01-06T05:12:31.044Z,8.53
2019-01-06T05:15:16.435Z,6.45
2019-01-06T05:18:10.074Z,7.70
2019-01-06T05:20:56.782Z,7.80
2019-01-06T05:23:43.742Z,9.93
2019-01-06T05:26:37.287Z,6.35
2019-01-06T05:29:23.945Z,9.40
2019-01-06T05:32:10.554Z,8.88
2019-01-06T05:35:03.030Z,10.68
2019-01-06T05:37:49.811Z,10.40
2019-01-06T05:40:46.842Z,6.85
2019-01-06T05:43:40.394Z,8.03
2019-01-06T05:46:43.570Z,12.25
2019-01-06T05:49:31.355Z,8.50
2019-01-06T05:52:17.748Z,15.13
2019-01-06T05:55:04.646Z,12.33
2019-01-06T05:58:10.914Z,11.15
2019-01-06T06:01:05.137Z,11.80
2019-01-06T06:03:49.394Z,11.57
2019-01-06T06:06:30.286Z,10.13
2019-01-06T06:09:15.830Z,7.72
2019-01-06T06:12:02.986Z,10.13
2019-01-06T06:14:49.622Z,12.28
2019-01-06T06:17:39.962Z,9.20
2019-01-06T06:20:30.773Z,17.20
2019-01-06T06:23:17.254Z,9.88
2019-01-06T06:26:04.558Z,9.55
2019-01-06T06:29:01.006Z,8.45
2019-01-06T06:31:53.351Z,8.53
2019-01-06T06:34:39.810Z,17.05
2019-01-06T06:37:26.576Z,8.23
2019-01-06T06:40:20.397Z,7.97
2019-01-06T06:43:09.142Z,12.33
2019-01-06T06:45:55.950Z,8.33
2019-01-06T06:48:42.655Z,11.60
2019-01-06T06:51:25.360Z,9.25
2019-01-06T06:54:33.862Z,10.10
2019-01-06T06:57:57.057Z,14.98
2019-01-06T07:00:56.751Z,9.98
2019-01-06T07:03:46.671Z,9.80
2019-01-06T07:06:33.643Z,8.78
2019-01-06T07:09:27.567Z,9.80
2019-01-06T07:12:14.157Z,9.45
2019-01-06T07:15:14.296Z,8.38
2019-01-06T07:18:08.726Z,11.35
2019-01-06T07:20:57.988Z,10.60
2019-01-06T07:23:58.089Z,9.63
2019-01-06T07:26:44.690Z,12.55
2019-01-06T07:29:35.629Z,13.43
2019-01-06T07:32:41.786Z,10.55
2019-01-06T07:35:41.929Z,9.20
2019-01-06T07:38:28.748Z,9.03
2019-01-06T07:41:19.598Z,11.08
2019-01-06T07:44:06.228Z,11.18
2019-01-06T07:46:59.894Z,10.18
2019-01-06T07:49:53.710Z,9.38
2019-01-06T07:52:40.387Z,10.18
2019-01-06T07:55:23.103Z,11.68
2019-01-06T07:58:19.880Z,13.45
2019-01-06T08:01:20.674Z,7.78
2019-01-06T08:04:08.519Z,9.15
2019-01-06T08:06:59.172Z,13.70
2019-01-06T08:10:05.375Z,10.13
2019-01-06T08:13:11.354Z,8.30
2019-01-06T08:16:01.935Z,10.25
2019-01-06T08:18:45.466Z,7.33
2019-01-06T08:21:32.095Z,9.30
2019-01-06T08:24:14.314Z,12.40
2019-01-06T08:27:11.221Z,12.98
2019-01-06T08:29:57.639Z,7.78
2019-01-06T08:32:45.467Z,11.50
2019-01-06T08:35:39.068Z,12.50
2019-01-06T08:38:35.892Z,9.30
2019-01-06T08:41:29.663Z,14.80
2019-01-06T08:44:29.614Z,9.53
2019-01-06T08:47:26.922Z,12.00
2019-01-06T08:50:11.891Z,8.45
2019-01-06T08:52:58.459Z,10.68
2019-01-06T08:55:52.278Z,10.28
2019-01-06T08:58:58.211Z,8.18
2019-01-06T09:01:57.926Z,10.05
2019-01-06T09:04:40.443Z,11.18
2019-01-06T09:07:40.115Z,11.90
2019-01-06T09:10:36.978Z,11.08
2019-01-06T09:13:19.092Z,13.75
2019-01-06T09:16:07.750Z,9.30
2019-01-06T09:18:58.847Z,13.00
2019-01-06T09:21:52.914Z,13.88
2019-01-06T09:24:39.599Z,9.28
2019-01-06T09:27:26.467Z,7.92
2019-01-06T09:30:14.298Z,7.53
2019-01-06T09:33:10.975Z,10.72
2019-01-06T09:36:10.842Z,10.43
2019-01-06T09:38:58.338Z,8.38
2019-01-06T09:42:03.631Z,11.93
2019-01-06T09:44:57.108Z,6.03
2019-01-06T09:47:46.177Z,7.65
2019-01-06T09:50:32.776Z,8.88
2019-01-06T09:53:23.568Z,7.90
2019-01-06T09:56:21.145Z,8.65
2019-01-06T09:59:08.070Z,12.88
2019-01-06T10:01:52.859Z,45.83
2019-01-06T10:04:46.255Z,15.80
2019-01-06T10:07:35.626Z,6.90
2019-01-06T10:10:22.239Z,10.05
2019-01-06T10:13:08.923Z,8.65
2019-01-06T10:15:55.466Z,12.30
2019-01-06T10:18:43.242Z,8.58
2019-01-06T10:21:24.766Z,7.17
2019-01-06T10:24:11.314Z,8.40
2019-01-06T10:27:11.419Z,9.30
2019-01-06T10:29:58.210Z,10.20
2019-01-06T10:32:45.970Z,7.55
2019-01-06T10:35:47.571Z,7.45
2019-01-06T10:38:35.720Z,6.70
2019-01-06T10:41:22.394Z,5.42
2019-01-06T10:44:08.939Z,9.08
2019-01-06T10:46:58.642Z,6.75
2019-01-06T10:49:53.222Z,5.72
2019-01-06T10:52:39.036Z,9.03
2019-01-06T10:55:35.438Z,7.72
2019-01-06T10:58:22.000Z,8.00
2019-01-06T11:01:08.406Z,7.25
2019-01-06T11:03:55.097Z,10.13
2019-01-06T11:06:44.363Z,7.87
2019-01-06T11:09:31.334Z,7.72
2019-01-06T11:12:18.020Z,8.38
2019-01-06T11:15:02.375Z,7.20
2019-01-06T11:17:53.195Z,10.93
2019-01-06T11:20:39.905Z,10.43
2019-01-06T11:23:36.810Z,6.35
2019-01-06T11:26:28.796Z,7.90
2019-01-06T11:29:15.521Z,9.03
2019-01-06T11:32:05.774Z,7.47
2019-01-06T11:34:51.681Z,8.15
2019-01-06T11:37:38.417Z,11.38
2019-01-06T11:40:28.574Z,7.87
2019-01-06T11:43:34.595Z,8.23
2019-01-06T11:46:34.742Z,9.40
2019-01-06T11:49:23.267Z,8.63
2019-01-06T11:52:09.924Z,12.55
2019-01-06T11:55:03.454Z,13.25
2019-01-06T11:57:51.532Z,8.50
2019-01-06T12:00:45.176Z,10.20
2019-01-06T12:03:50.243Z,6.65
2019-01-06T12:06:36.775Z,10.63
2019-01-06T12:09:13.962Z,11.80
2019-01-06T12:12:00.830Z,7.35
2019-01-06T12:14:46.202Z,11.53
2019-01-06T12:17:34.066Z,11.65
2019-01-06T12:20:34.252Z,9.88
2019-01-06T12:23:28.137Z,7.08
2019-01-06T12:26:14.498Z,8.15
2019-01-06T12:29:14.502Z,11.53
2019-01-06T12:32:00.783Z,9.05
2019-01-06T12:34:59.219Z,11.83
2019-01-06T12:37:47.050Z,10.35
2019-01-06T12:40:34.926Z,8.65
2019-01-06T12:44:00.457Z,9.23
2019-01-06T12:46:51.411Z,6.90
2019-01-06T12:49:34.258Z,10.38
2019-01-06T12:52:16.410Z,7.10
2019-01-06T12:54:59.062Z,6.37
2019-01-06T12:57:58.539Z,9.53
2019-01-06T13:00:45.257Z,9.58
2019-01-06T13:03:32.159Z,15.38
2019-01-06T13:06:19.972Z,11.28
2019-01-06T13:09:06.495Z,59.27
2019-01-06T13:11:53.297Z,85.03
2019-01-06T13:14:37.662Z,46.35
2019-01-06T13:17:32.891Z,24.60
2019-01-06T13:20:21.705Z,9.53
2019-01-06T13:23:02.812Z,13.05
2019-01-06T13:25:49.478Z,11.05
2019-01-06T13:28:40.488Z,9.90
2019-01-06T13:31:34.446Z,11.15
2019-01-06T13:34:23.366Z,10.40
2019-01-06T13:37:17.257Z,8.55
2019-01-06T13:40:07.203Z,12.05
2019-01-06T13:42:56.574Z,16.62
2019-01-06T13:45:50.599Z,11.30
2019-01-06T13:48:38.386Z,9.58
2019-01-06T13:51:29.008Z,11.20
2019-01-06T13:54:15.603Z,10.63
2019-01-06T13:57:21.879Z,13.05
2019-01-06T14:00:11.147Z,12.03
2019-01-06T14:02:52.521Z,14.83
2019-01-06T14:05:40.318Z,11.80
2019-01-06T14:08:39.498Z,10.65
2019-01-06T14:11:36.716Z,7.53
2019-01-06T14:14:23.726Z,10.35
2019-01-06T14:17:10.511Z,10.75
2019-01-06T14:20:07.404Z,9.30
2019-01-06T14:22:53.599Z,8.98
2019-01-06T14:25:44.069Z,12.00
2019-01-06T14:28:44.154Z,12.65
2019-01-06T14:31:43.866Z,11.80
2019-01-06T14:34:52.327Z,13.10
2019-01-06T14:37:55.402Z,13.88
2019-01-06T14:40:52.192Z,12.80
2019-01-06T14:43:55.921Z,8.35
2019-01-06T14:46:50.766Z,10.90
2019-01-06T14:49:37.762Z,9.68
2019-01-06T14:52:26.974Z,8.38
2019-01-06T14:55:16.735Z,13.88
2019-01-06T14:58:10.536Z,12.15
2019-01-06T15:00:57.942Z,14.98
2019-01-06T15:03:45.714Z,12.68
2019-01-06T15:06:31.243Z,13.53
2019-01-06T15:09:20.713Z,15.50
2019-01-06T15:12:15.217Z,13.75
2019-01-06T15:15:03.127Z,13.50
2019-01-06T15:17:50.902Z,12.73
2019-01-06T15:21:00.792Z,13.75
2019-01-06T15:23:53.348Z,13.68
2019-01-06T15:26:43.905Z,14.15
2019-01-06T15:29:49.805Z,16.93
2019-01-06T15:32:36.213Z,13.58
2019-01-06T15:35:17.699Z,12.03
2019-01-06T15:38:05.555Z,17.85
2019-01-06T15:40:49.679Z,18.55
2019-01-06T15:43:36.333Z,18.70
2019-01-06T15:46:23.087Z,18.15
2019-01-06T15:49:09.206Z,13.88
2019-01-06T15:51:56.036Z,19.57
2019-01-06T15:54:43.299Z,17.57
2019-01-06T15:57:43.414Z,20.37
2019-01-06T16:00:34.007Z,16.73
2019-01-06T16:03:20.447Z,20.70
2019-01-06T16:06:07.403Z,17.15
2019-01-06T16:08:54.884Z,20.70
2019-01-06T16:11:51.990Z,18.35
2019-01-06T16:14:38.442Z,17.80
2019-01-06T16:17:41.654Z,17.98
2019-01-06T16:20:32.594Z,16.15
2019-01-06T16:23:12.594Z,19.80
2019-01-06T16:26:04.918Z,18.40
2019-01-06T16:28:53.987Z,19.95
2019-01-06T16:31:43.852Z,19.20
2019-01-06T16:34:37.967Z,22.02
2019-01-06T16:37:41.955Z,18.37
2019-01-06T16:40:32.975Z,21.20
2019-01-06T16:43:19.435Z,23.15
2019-01-06T16:46:13.663Z,22.30
2019-01-06T16:49:10.091Z,17.75
2019-01-06T16:52:04.286Z,19.45
2019-01-06T16:54:53.552Z,17.90
2019-01-06T16:57:35.092Z,20.55
2019-01-06T17:00:22.206Z,21.87
2019-01-06T17:03:17.054Z,22.17
2019-01-06T17:05:59.594Z,21.93
2019-01-06T17:08:40.018Z,22.37
2019-01-06T17:11:26.304Z,22.17
2019-01-06T17:14:13.078Z,23.38
2019-01-06T17:17:04.166Z,21.73
2019-01-06T17:20:01.139Z,22.20
2019-01-06T17:22:47.970Z,24.40
2019-01-06T17:25:48.074Z,23.67
2019-01-06T17:28:47.967Z,22.22
2019-01-06T17:31:38.638Z,24.80
2019-01-06T17:34:25.626Z,20.48
2019-01-06T17:37:12.342Z,22.55
2019-01-06T17:40:09.225Z,25.90
2019-01-06T17:42:56.143Z,23.87
2019-01-06T17:45:42.567Z,21.68
2019-01-06T17:48:29.098Z,22.90
2019-01-06T17:51:15.823Z,27.42
2019-01-06T17:54:06.519Z,29.82
2019-01-06T17:56:53.000Z,26.37
2019-01-06T17:59:40.156Z,24.07
2019-01-06T18:02:46.394Z,29.40
2019-01-06T18:05:33.235Z,31.02
2019-01-06T18:08:19.985Z,29.95
2019-01-06T18:11:06.875Z,26.05
2019-01-06T18:14:00.902Z,23.85
2019-01-06T18:16:59.408Z,25.55
2019-01-06T18:19:48.829Z,24.10
2019-01-06T18:22:36.301Z,26.07
2019-01-06T18:25:22.607Z,23.50
2019-01-06T18:28:09.343Z,28.20
2019-01-06T18:31:03.365Z,23.73
2019-01-06T18:34:03.316Z,25.60
2019-01-06T18:37:00.214Z,19.85
2019-01-06T18:39:46.435Z,22.77
2019-01-06T18:42:33.094Z,22.52
2019-01-06T18:45:21.814Z,21.93
2019-01-06T18:48:24.865Z,20.90
2019-01-06T18:51:16.518Z,17.82
2019-01-06T18:54:02.721Z,22.45
2019-01-06T18:56:44.957Z,20.70
2019-01-06T18:59:25.566Z,20.08
2019-01-06T19:02:12.854Z,25.02
2019-01-06T19:05:08.211Z,19.30
2019-01-06T19:08:02.240Z,24.50
2019-01-06T19:10:48.693Z,24.37
2019-01-06T19:13:35.422Z,20.92
2019-01-06T19:16:27.938Z,23.73
2019-01-06T19:19:14.750Z,25.62
2019-01-06T19:22:11.785Z,26.68
2019-01-06T19:24:58.549Z,20.90
2019-01-06T19:27:45.276Z,24.25
2019-01-06T19:30:32.170Z,26.90
2019-01-06T19:33:19.939Z,21.90
2019-01-06T19:36:16.628Z,19.42
2019-01-06T19:39:08.214Z,24.57
2019-01-06T19:41:59.654Z,21.20
2019-01-06T19:44:59.647Z,25.45
2019-01-06T19:47:47.423Z,20.50
2019-01-06T19:50:35.231Z,22.15
2019-01-06T19:53:21.763Z,23.32
2019-01-06T19:56:08.593Z,23.95
2019-01-06T19:58:55.126Z,24.55
2019-01-06T20:01:41.834Z,23.10
2019-01-06T20:04:35.767Z,19.80
2019-01-06T20:07:29.676Z,27.60
2019-01-06T20:10:20.795Z,21.48
2019-01-06T20:13:14.425Z,20.43
2019-01-06T20:16:00.878Z,20.10
2019-01-06T20:18:39.213Z,22.75
2019-01-06T20:21:26.121Z,19.80
2019-01-06T20:24:30.306Z,19.50
2019-01-06T20:27:23.282Z,18.25
2019-01-06T20:30:20.130Z,20.97
2019-01-06T20:33:13.520Z,19.80
2019-01-06T20:36:02.673Z,19.27
2019-01-06T20:38:57.126Z,24.15
2019-01-06T20:41:43.554Z,20.35
2019-01-06T20:44:42.746Z,25.77
2019-01-06T20:47:39.006Z,19.17
2019-01-06T20:50:25.430Z,21.70
2019-01-06T20:53:18.882Z,24.90
2019-01-06T20:56:05.356Z,29.48
2019-01-06T20:58:58.414Z,21.05
2019-01-06T21:01:46.202Z,22.73
2019-01-06T21:04:33.687Z,24.92
2019-01-06T21:07:14.749Z,23.92
2019-01-06T21:10:10.180Z,22.52
2019-01-06T21:12:54.705Z,25.85
2019-01-06T21:15:57.618Z,23.40
2019-01-06T21:18:35.330Z,20.90
2019-01-06T21:21:23.486Z,25.02
2019-01-06T21:24:06.374Z,22.75
2019-01-06T21:26:57.145Z,25.23
2019-01-06T21:29:48.174Z,20.90
2019-01-06T21:32:28.367Z,31.30
2019-01-06T21:35:28.314Z,19.62
2019-01-06T21:38:14.838Z,27.48
2019-01-06T21:41:10.710Z,24.45
2019-01-06T21:43:57.570Z,23.38
2019-01-06T21:46:45.494Z,26.50
2019-01-06T21:49:29.754Z,24.15
2019-01-06T21:52:14.734Z,26.80
2019-01-06T21:55:09.096Z,22.80
2019-01-06T21:57:57.399Z,27.07
2019-01-06T22:00:54.343Z,27.00
2019-01-06T22:03:33.578Z,28.60
2019-01-06T22:06:15.470Z,27.35
2019-01-06T22:09:06.526Z,25.90
2019-01-06T22:11:53.163Z,31.45
2019-01-06T22:14:47.111Z,27.93
2019-01-06T22:17:53.043Z,25.15
2019-01-06T22:20:39.794Z,28.55
2019-01-06T22:23:36.980Z,28.75
2019-01-06T22:26:27.813Z,27.87
2019-01-06T22:29:14.598Z,27.35
2019-01-06T22:32:01.558Z,29.98
2019-01-06T22:34:48.304Z,27.95
2019-01-06T22:37:34.948Z,32.45
2019-01-06T22:40:21.258Z,25.10
2019-01-06T22:43:07.655Z,25.95
2019-01-06T22:46:01.497Z,34.18
2019-01-06T22:48:45.197Z,24.50
2019-01-06T22:51:31.617Z,32.67
2019-01-06T22:54:18.304Z,29.63
2019-01-06T22:57:22.350Z,24.95
2019-01-06T23:00:08.382Z,21.75
2019-01-06T23:02:56.204Z,21.60
2019-01-06T23:05:39.368Z,29.00
2019-01-06T23:08:36.528Z,23.12
2019-01-06T23:11:23.030Z,18.87
2019-01-06T23:14:10.818Z,26.07
2019-01-06T23:16:57.394Z,23.62
2019-01-06T23:19:43.157Z,19.65
2019-01-06T23:22:29.547Z,25.52
2019-01-06T23:25:16.187Z,19.35
2019-01-06T23:28:05.001Z,21.23
2019-01-06T23:30:57.183Z,18.67
2019-01-06T23:33:43.834Z,26.33
2019-01-06T23:36:30.582Z,21.77
2019-01-06T23:39:18.372Z,25.02
2019-01-06T23:42:12.815Z,21.50
2019-01-06T23:44:59.571Z,26.52
2019-01-06T23:47:55.455Z,24.35
2019-01-06T23:50:42.303Z,25.15
2019-01-06T23:53:30.096Z,26.52
2019-01-06T23:56:30.219Z,27.13
2019-01-06T23:59:27.383Z,29.48
